createdAt,value
2023-01-12T00:01:22.020Z,96265.44
2023-01-12T00:03:25.042Z,96259.69
2023-01-12T00:05:27.721Z,96260.72
2023-01-12T00:07:32.244Z,96259.25
2023-01-12T00:09:35.162Z,96266.00
2023-01-12T00:11:39.514Z,96274.22
2023-01-12T00:13:42.301Z,96263.97
2023-01-12T00:16:00.266Z,96279.09
2023-01-12T00:18:02.959Z,96261.44
2023-01-12T00:20:06.720Z,96253.44
2023-01-12T00:22:12.619Z,96250.78
2023-01-12T00:24:16.742Z,96250.16
2023-01-12T00:26:19.495Z,96263.09
2023-01-12T00:28:22.193Z,96247.91
2023-01-12T00:30:24.872Z,96261.00
2023-01-12T00:32:29.010Z,96247.88
2023-01-12T00:34:31.816Z,96241.94
2023-01-12T00:36:34.569Z,96266.34
2023-01-12T00:38:38.633Z,96223.59
2023-01-12T00:40:41.377Z,96259.75
2023-01-12T00:43:01.733Z,96196.34
2023-01-12T00:45:25.084Z,96249.50
2023-01-12T00:47:29.207Z,96241.66
2023-01-12T00:49:31.889Z,96253.97
2023-01-12T00:51:34.589Z,96247.78
2023-01-12T00:53:37.376Z,96215.25
2023-01-12T00:55:40.327Z,96236.13
2023-01-12T00:57:43.620Z,96240.38
2023-01-12T00:59:47.728Z,96234.22
2023-01-12T01:01:50.647Z,96233.84
2023-01-12T01:03:55.551Z,96226.44
2023-01-12T01:06:03.017Z,96119.53
2023-01-12T01:08:06.050Z,96223.56
2023-01-12T01:10:09.679Z,96195.94
2023-01-12T01:12:12.424Z,96228.03
2023-01-12T01:14:15.186Z,96226.78
2023-01-12T01:16:19.211Z,96227.00
2023-01-12T01:18:21.945Z,96226.38
2023-01-12T01:20:26.021Z,96221.72
2023-01-12T01:22:29.049Z,96230.31
2023-01-12T01:24:31.883Z,96193.47
2023-01-12T01:26:34.646Z,96189.56
2023-01-12T01:28:37.875Z,96229.88
2023-01-12T01:30:40.576Z,96228.69
2023-01-12T01:32:43.363Z,96199.88
2023-01-12T01:34:47.080Z,96213.75
2023-01-12T01:36:51.247Z,96219.13
2023-01-12T01:38:54.076Z,96230.91
2023-01-12T01:40:57.167Z,96227.09
2023-01-12T01:43:00.159Z,96243.81
2023-01-12T01:45:05.722Z,96238.31
2023-01-12T01:47:18.311Z,96235.81
2023-01-12T01:49:29.579Z,96227.31
2023-01-12T01:51:32.342Z,96240.94
2023-01-12T01:53:38.916Z,96219.28
2023-01-12T01:55:49.502Z,96245.66
2023-01-12T01:57:55.892Z,96245.66
2023-01-12T02:00:00.853Z,96242.78
2023-01-12T02:02:04.710Z,96244.41
2023-01-12T02:04:08.689Z,96210.88
2023-01-12T02:06:11.548Z,96243.19
2023-01-12T02:08:20.845Z,96236.81
2023-01-12T02:10:24.932Z,96240.28
2023-01-12T02:12:45.017Z,96235.38
2023-01-12T02:15:08.658Z,96236.84
2023-01-12T02:17:24.485Z,96233.38
2023-01-12T02:19:55.666Z,96225.56
2023-01-12T02:22:19.691Z,96143.59
2023-01-12T02:24:55.397Z,96216.97
2023-01-12T02:27:33.079Z,96216.16
2023-01-12T02:30:26.401Z,96217.97
2023-01-12T02:32:41.434Z,96220.25
2023-01-12T02:34:54.141Z,96204.41
2023-01-12T02:37:08.841Z,96196.22
2023-01-12T02:39:18.115Z,96190.69
2023-01-12T02:41:46.766Z,96172.28
2023-01-12T02:43:49.306Z,96170.88
2023-01-12T02:45:57.353Z,96140.84
2023-01-12T02:48:07.611Z,96163.28
2023-01-12T02:50:14.830Z,96099.13
2023-01-12T02:52:20.579Z,96054.78
2023-01-12T02:54:26.051Z,96187.47
2023-01-12T02:56:33.037Z,96165.41
2023-01-12T02:58:39.677Z,96164.53
2023-01-12T03:00:45.075Z,96184.19
2023-01-12T03:02:47.869Z,96188.66
2023-01-12T03:04:53.175Z,96178.00
2023-01-12T03:07:45.406Z,96177.13
2023-01-12T03:09:52.059Z,96167.06
2023-01-12T03:12:01.061Z,96129.97
2023-01-12T03:14:05.289Z,96149.69
2023-01-12T03:16:10.682Z,96154.16
2023-01-12T03:18:17.376Z,96159.50
2023-01-12T03:20:25.497Z,96184.91
2023-01-12T03:22:30.521Z,96136.03
2023-01-12T03:24:38.677Z,96152.69
2023-01-12T03:26:45.254Z,96084.25
2023-01-12T03:28:55.687Z,96144.72
2023-01-12T03:31:04.750Z,96125.56
2023-01-12T03:33:08.459Z,96146.78
2023-01-12T03:35:11.459Z,96153.13
2023-01-12T03:37:25.484Z,96137.13
2023-01-12T03:39:37.981Z,96137.53
2023-01-12T03:41:52.743Z,96141.44
2023-01-12T03:44:01.201Z,96123.84
2023-01-12T03:46:11.987Z,96155.78
2023-01-12T03:48:21.798Z,96156.00
2023-01-12T03:50:29.923Z,96146.38
2023-01-12T03:52:37.923Z,96156.41
2023-01-12T03:54:44.323Z,96159.50
2023-01-12T03:56:48.589Z,96170.09
2023-01-12T03:58:52.321Z,96165.38
2023-01-12T04:00:55.134Z,96167.81
2023-01-12T04:03:05.228Z,96153.94
2023-01-12T04:05:09.843Z,96158.44
2023-01-12T04:07:12.538Z,96163.91
2023-01-12T04:09:16.704Z,96162.28
2023-01-12T04:11:37.346Z,96166.53
2023-01-12T04:13:40.066Z,96159.94
2023-01-12T04:15:43.259Z,96156.78
2023-01-12T04:17:46.005Z,96163.47
2023-01-12T04:19:48.765Z,96152.63
2023-01-12T04:22:09.309Z,96159.53
2023-01-12T04:24:12.102Z,96157.84
2023-01-12T04:26:17.411Z,96137.38
2023-01-12T04:28:20.132Z,96148.44
2023-01-12T04:30:27.048Z,96122.78
2023-01-12T04:32:29.805Z,96140.81
2023-01-12T04:34:32.646Z,96146.91
2023-01-12T04:36:35.374Z,96128.38
2023-01-12T04:38:38.778Z,96140.91
2023-01-12T04:40:41.484Z,96130.69
2023-01-12T04:43:07.390Z,96137.50
2023-01-12T04:45:11.409Z,96139.28
2023-01-12T04:47:14.108Z,96136.56
2023-01-12T04:49:16.958Z,96142.03
2023-01-12T04:51:19.929Z,96111.78
2023-01-12T04:53:24.542Z,96126.69
2023-01-12T04:55:27.311Z,96126.69
2023-01-12T04:57:30.373Z,96113.56
2023-01-12T04:59:34.435Z,96118.91
2023-01-12T05:01:38.965Z,96105.78
2023-01-12T05:03:42.993Z,96106.16
2023-01-12T05:05:45.978Z,96087.38
2023-01-12T05:08:02.636Z,96081.56
2023-01-12T05:10:24.311Z,96098.22
2023-01-12T05:12:27.709Z,96116.81
2023-01-12T05:14:30.451Z,96123.94
2023-01-12T05:16:34.588Z,96120.69
2023-01-12T05:18:37.392Z,96131.16
2023-01-12T05:20:40.144Z,96115.66
2023-01-12T05:22:42.893Z,96115.06
2023-01-12T05:24:45.598Z,96124.25
2023-01-12T05:26:48.399Z,96116.25
2023-01-12T05:28:51.644Z,96124.56
2023-01-12T05:30:54.463Z,96116.91
2023-01-12T05:32:58.597Z,96112.03
2023-01-12T05:35:01.302Z,96106.09
2023-01-12T05:37:04.167Z,96070.59
2023-01-12T05:39:07.015Z,96112.91
2023-01-12T05:41:10.759Z,96090.63
2023-01-12T05:43:31.891Z,96104.66
2023-01-12T05:45:35.012Z,96103.63
2023-01-12T05:47:37.777Z,96105.56
2023-01-12T05:49:41.753Z,96100.44
2023-01-12T05:51:44.482Z,96103.53
2023-01-12T05:53:47.509Z,96114.88
2023-01-12T05:55:50.315Z,96103.59
2023-01-12T05:57:53.025Z,96111.19
2023-01-12T05:59:55.751Z,96098.56
2023-01-12T06:01:58.522Z,96085.50
2023-01-12T06:04:02.513Z,96081.94
2023-01-12T06:06:07.240Z,96077.22
2023-01-12T06:08:10.056Z,96076.00
2023-01-12T06:10:13.372Z,96073.34
2023-01-12T06:12:39.078Z,96055.53
2023-01-12T06:14:41.858Z,96074.38
2023-01-12T06:16:44.809Z,96074.59
2023-01-12T06:18:47.603Z,96030.28
2023-01-12T06:20:50.291Z,96078.25
2023-01-12T06:22:54.340Z,96063.94
2023-01-12T06:24:57.075Z,96083.41
2023-01-12T06:26:59.927Z,96069.03
2023-01-12T06:29:03.559Z,96062.81
2023-01-12T06:31:08.342Z,96060.38
2023-01-12T06:33:11.099Z,96060.00
2023-01-12T06:35:19.004Z,96028.13
2023-01-12T06:37:23.530Z,96052.16
2023-01-12T06:39:27.550Z,96050.06
2023-01-12T06:41:47.855Z,96065.06
2023-01-12T06:43:50.578Z,96014.41
2023-01-12T06:45:54.023Z,96046.81
2023-01-12T06:47:57.283Z,96042.00
2023-01-12T06:50:00.127Z,96068.47
2023-01-12T06:52:02.813Z,96053.06
2023-01-12T06:54:05.575Z,96054.63
2023-01-12T06:56:09.990Z,96008.03
2023-01-12T06:58:12.685Z,96052.47
2023-01-12T07:00:15.935Z,96034.38
2023-01-12T07:02:18.701Z,96044.31
2023-01-12T07:04:21.491Z,96031.84
2023-01-12T07:06:24.370Z,96034.28
2023-01-12T07:08:27.324Z,96034.88
2023-01-12T07:10:32.534Z,96040.38
2023-01-12T07:12:36.617Z,95993.06
2023-01-12T07:14:39.340Z,96043.56
2023-01-12T07:16:42.112Z,95938.34
2023-01-12T07:18:44.823Z,96060.03
2023-01-12T07:20:48.665Z,96046.22
2023-01-12T07:22:51.407Z,96040.69
2023-01-12T07:24:55.518Z,96050.09
2023-01-12T07:26:59.329Z,96043.41
2023-01-12T07:29:03.948Z,96036.44
2023-01-12T07:31:07.952Z,96031.19
2023-01-12T07:33:12.653Z,96030.28
2023-01-12T07:35:15.560Z,96021.69
2023-01-12T07:37:18.334Z,96026.22
2023-01-12T07:39:21.151Z,96010.41
2023-01-12T07:41:41.300Z,96024.56
2023-01-12T07:43:44.988Z,96031.53
2023-01-12T07:45:49.153Z,96039.25
2023-01-12T07:47:54.178Z,96028.88
2023-01-12T07:49:56.971Z,95968.81
2023-01-12T07:51:59.654Z,96034.41
2023-01-12T07:54:02.400Z,96029.66
2023-01-12T07:56:05.195Z,96035.25
2023-01-12T07:58:08.706Z,96026.41
2023-01-12T08:00:13.383Z,96041.91
2023-01-12T08:02:23.976Z,96020.63
2023-01-12T08:04:26.732Z,96024.69
2023-01-12T08:06:29.582Z,96022.75
2023-01-12T08:08:32.409Z,96041.91
2023-01-12T08:10:35.583Z,96036.03
2023-01-12T08:12:38.340Z,96057.63
2023-01-12T08:14:42.403Z,96034.75
2023-01-12T08:16:49.679Z,95953.25
2023-01-12T08:18:58.032Z,96045.56
2023-01-12T08:21:05.562Z,96055.34
2023-01-12T08:23:12.131Z,96034.78
2023-01-12T08:25:19.099Z,96042.94
2023-01-12T08:27:26.389Z,96058.03
2023-01-12T08:29:36.138Z,96054.38
2023-01-12T08:31:39.393Z,96052.13
2023-01-12T08:33:43.206Z,96050.28
2023-01-12T08:35:48.241Z,96074.69
2023-01-12T08:37:51.094Z,96039.91
2023-01-12T08:39:54.048Z,96069.25
2023-01-12T08:41:56.887Z,96060.19
2023-01-12T08:44:06.863Z,96080.31
2023-01-12T08:46:09.592Z,96070.81
2023-01-12T08:48:12.312Z,96062.56
2023-01-12T08:50:15.633Z,96024.69
2023-01-12T08:52:19.782Z,96050.69
2023-01-12T08:54:23.140Z,96055.56
2023-01-12T08:56:25.891Z,96072.16
2023-01-12T08:58:28.640Z,96057.88
2023-01-12T09:00:31.402Z,96060.09
2023-01-12T09:02:34.182Z,96072.41
2023-01-12T09:04:39.575Z,96053.53
2023-01-12T09:06:45.130Z,96067.41
2023-01-12T09:08:49.388Z,96060.09
2023-01-12T09:10:52.108Z,96053.94
2023-01-12T09:12:54.859Z,96056.25
2023-01-12T09:14:57.591Z,96063.72
2023-01-12T09:17:00.566Z,96066.16
2023-01-12T09:19:03.388Z,96063.72
2023-01-12T09:21:08.118Z,96095.44
2023-01-12T09:23:10.901Z,96078.97
2023-01-12T09:25:15.569Z,96079.69
2023-01-12T09:27:18.279Z,96092.22
2023-01-12T09:29:21.004Z,96072.72
2023-01-12T09:31:24.182Z,96061.78
2023-01-12T09:33:27.534Z,96096.41
2023-01-12T09:35:30.316Z,96098.94
2023-01-12T09:37:33.089Z,96092.56
2023-01-12T09:39:35.868Z,96094.69
2023-01-12T09:41:59.768Z,96102.34
2023-01-12T09:44:20.073Z,96112.13
2023-01-12T09:46:46.395Z,96108.38
2023-01-12T09:48:49.220Z,96107.06
2023-01-12T09:50:56.567Z,96110.09
2023-01-12T09:53:03.596Z,96108.72
2023-01-12T09:55:13.165Z,96104.06
2023-01-12T09:57:58.155Z,96096.09
2023-01-12T10:00:07.039Z,96093.78
2023-01-12T10:02:15.915Z,96080.41
2023-01-12T10:04:19.131Z,96092.28
2023-01-12T10:06:22.442Z,96083.69
2023-01-12T10:08:32.658Z,96078.88
2023-01-12T10:10:35.389Z,96061.81
2023-01-12T10:12:44.408Z,96074.94
2023-01-12T10:15:05.910Z,96051.34
2023-01-12T10:17:23.810Z,96046.56
2023-01-12T10:19:38.084Z,96043.19
2023-01-12T10:21:42.570Z,96037.28
2023-01-12T10:23:45.858Z,96039.06
2023-01-12T10:25:50.549Z,96042.44
2023-01-12T10:27:56.736Z,96032.50
2023-01-12T10:29:59.932Z,96027.66
2023-01-12T10:32:02.710Z,96022.66
2023-01-12T10:34:07.923Z,96002.25
2023-01-12T10:36:11.971Z,96020.53
2023-01-12T10:38:22.556Z,96028.94
2023-01-12T10:40:28.720Z,96019.06
2023-01-12T10:42:48.999Z,96033.13
2023-01-12T10:45:12.523Z,96029.88
2023-01-12T10:47:23.096Z,96045.22
2023-01-12T10:49:26.993Z,96015.09
2023-01-12T10:51:31.158Z,96011.59
2023-01-12T10:53:39.316Z,96007.41
2023-01-12T10:55:43.939Z,95955.16
2023-01-12T10:57:48.197Z,96008.78
2023-01-12T10:59:54.556Z,96010.88
2023-01-12T11:02:17.573Z,96019.75
2023-01-12T11:04:22.708Z,96007.88
2023-01-12T11:06:32.957Z,96019.28
2023-01-12T11:08:35.712Z,95998.44
2023-01-12T11:10:38.738Z,96021.03
2023-01-12T11:12:42.079Z,96001.94
2023-01-12T11:14:57.634Z,96011.72
2023-01-12T11:17:17.881Z,96029.41
2023-01-12T11:19:24.594Z,96023.94
2023-01-12T11:21:30.607Z,96007.31
2023-01-12T11:23:40.022Z,96039.66
2023-01-12T11:25:45.939Z,96014.97
2023-01-12T11:27:53.158Z,95991.03
2023-01-12T11:29:59.825Z,96002.66
2023-01-12T11:32:12.027Z,95983.78
2023-01-12T11:34:19.541Z,96004.06
2023-01-12T11:36:27.462Z,95961.47
2023-01-12T11:38:36.467Z,95998.66
2023-01-12T11:40:41.045Z,95912.72
2023-01-12T11:43:04.158Z,95997.31
2023-01-12T11:45:14.133Z,95996.81
2023-01-12T11:47:24.915Z,95994.38
2023-01-12T11:49:34.057Z,95984.72
2023-01-12T11:51:37.316Z,95954.09
2023-01-12T11:53:41.719Z,95978.19
2023-01-12T11:56:01.638Z,95982.03
2023-01-12T11:58:16.440Z,95955.72
2023-01-12T12:00:33.656Z,95952.34
2023-01-12T12:02:41.228Z,95949.78
2023-01-12T12:04:56.781Z,95962.22
2023-01-12T12:07:18.472Z,95959.09
2023-01-12T12:09:37.606Z,95939.91
2023-01-12T12:11:52.877Z,95936.59
2023-01-12T12:14:08.277Z,95933.97
2023-01-12T12:16:22.273Z,95930.38
2023-01-12T12:18:39.294Z,95931.41
2023-01-12T12:20:52.221Z,95930.38
2023-01-12T12:23:12.374Z,95923.50
2023-01-12T12:25:24.641Z,95927.56
2023-01-12T12:27:43.261Z,95939.06
2023-01-12T12:30:08.829Z,95942.09
2023-01-12T12:32:23.701Z,95940.84
2023-01-12T12:34:47.183Z,95949.88
2023-01-12T12:36:58.032Z,95926.03
2023-01-12T12:39:26.388Z,95930.19
2023-01-12T12:41:55.304Z,95926.41
2023-01-12T12:44:38.401Z,95923.34
2023-01-12T12:46:53.302Z,95928.53
2023-01-12T12:49:02.034Z,95911.25
2023-01-12T12:51:08.915Z,95954.78
2023-01-12T12:53:17.563Z,95925.59
2023-01-12T12:55:20.603Z,95944.56
2023-01-12T12:57:23.387Z,95725.28
2023-01-12T12:59:55.185Z,95916.91
2023-01-12T13:01:59.822Z,95929.25
2023-01-12T13:04:03.747Z,95932.94
2023-01-12T13:06:22.627Z,95922.81
2023-01-12T13:08:28.362Z,95882.09
2023-01-12T13:10:32.673Z,95936.31
2023-01-12T13:12:36.445Z,95955.38
2023-01-12T13:14:41.539Z,95944.56
2023-01-12T13:16:50.606Z,95889.25
2023-01-12T13:19:12.676Z,95926.84
2023-01-12T13:21:45.967Z,95933.09
2023-01-12T13:23:52.097Z,95802.34
2023-01-12T13:25:58.484Z,95911.44
2023-01-12T13:28:18.933Z,95911.63
2023-01-12T13:30:49.827Z,95912.69
2023-01-12T13:32:59.889Z,95922.09
2023-01-12T13:35:03.030Z,95910.00
2023-01-12T13:37:20.596Z,95911.88
2023-01-12T13:39:23.621Z,95913.75
2023-01-12T13:41:46.939Z,95918.53
2023-01-12T13:43:55.271Z,95910.53
2023-01-12T13:46:01.913Z,95905.09
2023-01-12T13:48:08.392Z,95904.47
2023-01-12T13:50:17.666Z,95913.16
2023-01-12T13:52:29.351Z,95912.56
2023-01-12T13:54:33.754Z,95908.34
2023-01-12T13:56:36.545Z,95908.91
2023-01-12T13:58:41.978Z,95897.88
2023-01-12T14:00:55.236Z,95903.56
2023-01-12T14:02:58.497Z,95901.84
2023-01-12T14:05:17.705Z,95900.25
2023-01-12T14:07:32.351Z,95925.09
2023-01-12T14:09:45.799Z,95905.00
2023-01-12T14:12:20.279Z,95915.00
2023-01-12T14:14:57.491Z,95915.56
2023-01-12T14:17:14.144Z,95890.59
2023-01-12T14:19:27.582Z,95914.66
2023-01-12T14:21:33.203Z,95901.59
2023-01-12T14:23:37.342Z,95899.63
2023-01-12T14:25:40.085Z,95925.84
2023-01-12T14:27:49.845Z,95921.16
2023-01-12T14:29:52.619Z,95906.94
2023-01-12T14:31:55.704Z,95900.78
2023-01-12T14:34:01.775Z,95772.56
2023-01-12T14:36:07.132Z,95858.63
2023-01-12T14:38:14.406Z,95838.44
2023-01-12T14:40:28.865Z,95838.13
2023-01-12T14:42:50.520Z,95899.00
2023-01-12T14:45:13.014Z,95907.63
2023-01-12T14:47:25.010Z,95842.94
2023-01-12T14:49:29.928Z,95893.19
2023-01-12T14:51:35.444Z,95897.03
2023-01-12T14:53:41.382Z,95902.63
2023-01-12T14:55:45.969Z,95901.22
2023-01-12T14:57:51.001Z,95895.63
2023-01-12T14:59:54.880Z,95893.75
2023-01-12T15:02:29.908Z,95894.81
2023-01-12T15:04:32.717Z,95903.06
2023-01-12T15:06:40.325Z,95841.25
2023-01-12T15:08:54.617Z,95801.31
2023-01-12T15:11:06.151Z,95897.16
2023-01-12T15:13:26.554Z,95884.47
2023-01-12T15:15:51.998Z,95889.34
2023-01-12T15:18:13.910Z,95895.31
2023-01-12T15:20:43.550Z,95872.34
2023-01-12T15:23:03.815Z,95866.41
2023-01-12T15:25:32.023Z,95888.13
2023-01-12T15:27:36.138Z,95808.53
2023-01-12T15:29:40.665Z,95875.91
2023-01-12T15:31:44.118Z,95878.00
2023-01-12T15:33:47.118Z,95805.03
2023-01-12T15:35:49.862Z,95857.16
2023-01-12T15:37:54.888Z,95869.06
2023-01-12T15:39:59.780Z,95884.88
2023-01-12T15:42:17.358Z,95870.94
2023-01-12T15:44:22.623Z,95867.00
2023-01-12T15:46:25.358Z,95863.75
2023-01-12T15:48:28.075Z,95868.41
2023-01-12T15:50:30.990Z,95869.19
2023-01-12T15:52:33.789Z,95860.81
2023-01-12T15:54:36.535Z,95867.09
2023-01-12T15:56:39.333Z,95838.88
2023-01-12T15:58:42.093Z,95864.06
2023-01-12T16:00:46.742Z,95792.88
2023-01-12T16:02:50.881Z,95858.03
2023-01-12T16:04:53.972Z,95869.56
2023-01-12T16:06:57.776Z,95733.53
2023-01-12T16:09:00.940Z,95855.13
2023-01-12T16:11:12.303Z,95825.94
2023-01-12T16:13:15.044Z,95856.50
2023-01-12T16:15:19.846Z,95845.38
2023-01-12T16:17:23.979Z,95864.53
2023-01-12T16:19:28.174Z,95854.88
2023-01-12T16:21:30.918Z,95862.59
2023-01-12T16:23:33.942Z,95855.94
2023-01-12T16:25:38.295Z,95840.47
2023-01-12T16:27:41.275Z,95854.88
2023-01-12T16:29:44.163Z,95844.09
2023-01-12T16:31:46.958Z,95848.16
2023-01-12T16:33:51.014Z,95865.50
2023-01-12T16:35:55.991Z,95802.41
2023-01-12T16:37:58.633Z,95870.59
2023-01-12T16:40:01.401Z,95712.84
2023-01-12T16:42:04.164Z,95857.13
2023-01-12T16:44:07.074Z,95857.94
2023-01-12T16:46:11.204Z,95867.56
2023-01-12T16:48:14.424Z,95864.75
2023-01-12T16:50:18.842Z,95859.66
2023-01-12T16:52:23.366Z,95855.53
2023-01-12T16:54:26.205Z,95848.00
2023-01-12T16:56:29.375Z,95849.84
2023-01-12T16:58:32.191Z,95845.50
2023-01-12T17:00:36.223Z,95846.94
2023-01-12T17:02:40.707Z,95846.00
2023-01-12T17:04:48.091Z,95816.50
2023-01-12T17:06:52.295Z,95846.03
2023-01-12T17:08:56.918Z,95794.41
2023-01-12T17:11:05.794Z,95818.97
2023-01-12T17:13:08.693Z,95845.78
2023-01-12T17:15:12.575Z,95843.47
2023-01-12T17:17:15.716Z,95788.38
2023-01-12T17:19:19.483Z,95832.03
2023-01-12T17:21:22.972Z,95845.50
2023-01-12T17:23:27.504Z,95791.72
2023-01-12T17:25:30.396Z,95829.59
2023-01-12T17:27:33.267Z,95743.16
2023-01-12T17:29:37.279Z,95813.63
2023-01-12T17:31:41.138Z,95812.16
2023-01-12T17:33:44.593Z,95838.44
2023-01-12T17:35:47.840Z,95825.63
2023-01-12T17:37:52.002Z,95821.41
2023-01-12T17:39:59.757Z,95829.44
2023-01-12T17:42:23.525Z,95838.06
2023-01-12T17:44:26.702Z,95734.69
2023-01-12T17:46:30.005Z,95800.78
2023-01-12T17:48:32.773Z,95809.75
2023-01-12T17:50:35.782Z,95772.47
2023-01-12T17:52:38.604Z,95803.16
2023-01-12T17:54:41.346Z,95800.72
2023-01-12T17:56:45.640Z,95779.94
2023-01-12T17:58:51.239Z,95734.97
2023-01-12T18:00:53.991Z,95803.34
2023-01-12T18:02:57.664Z,95797.41
2023-01-12T18:05:00.408Z,95739.38
2023-01-12T18:07:03.138Z,95795.97
2023-01-12T18:09:06.489Z,95798.22
2023-01-12T18:11:09.998Z,95801.78
2023-01-12T18:13:14.358Z,95800.97
2023-01-12T18:15:17.845Z,95800.78
2023-01-12T18:17:20.543Z,95792.25
2023-01-12T18:19:23.271Z,95798.31
2023-01-12T18:21:28.147Z,95784.81
2023-01-12T18:23:31.243Z,95794.25
2023-01-12T18:25:36.784Z,95791.41
2023-01-12T18:27:39.508Z,95779.00
2023-01-12T18:29:43.590Z,95764.56
2023-01-12T18:31:47.277Z,95776.06
2023-01-12T18:33:50.725Z,95719.91
2023-01-12T18:35:53.426Z,95785.03
2023-01-12T18:37:56.179Z,95777.94
2023-01-12T18:39:58.999Z,95780.69
2023-01-12T18:42:19.590Z,95775.91
2023-01-12T18:44:22.341Z,95744.44
2023-01-12T18:46:50.239Z,95764.53
2023-01-12T18:48:51.982Z,95747.56
2023-01-12T18:51:12.261Z,95760.59
2023-01-12T18:53:31.786Z,95769.78
2023-01-12T18:55:37.170Z,95774.31
2023-01-12T18:57:39.908Z,95728.03
2023-01-12T18:59:42.611Z,95752.78
2023-01-12T19:01:46.715Z,95768.03
2023-01-12T19:03:49.935Z,95750.06
2023-01-12T19:06:00.501Z,95763.53
2023-01-12T19:08:25.527Z,95683.00
2023-01-12T19:10:29.069Z,95759.06
2023-01-12T19:12:33.644Z,95738.72
2023-01-12T19:14:53.907Z,95770.72
2023-01-12T19:17:15.292Z,95750.00
2023-01-12T19:19:22.666Z,95766.53
2023-01-12T19:21:42.817Z,95760.75
2023-01-12T19:24:03.110Z,95735.78
2023-01-12T19:26:23.539Z,95746.56
2023-01-12T19:28:36.352Z,95736.50
2023-01-12T19:30:39.260Z,95723.69
2023-01-12T19:32:43.372Z,95747.38
2023-01-12T19:34:48.345Z,95750.53
2023-01-12T19:36:51.909Z,95733.34
2023-01-12T19:38:54.679Z,95748.47
2023-01-12T19:41:10.884Z,95733.63
2023-01-12T19:43:18.250Z,95736.63
2023-01-12T19:45:20.991Z,95747.59
2023-01-12T19:47:23.788Z,95709.56
2023-01-12T19:49:27.936Z,95729.53
2023-01-12T19:51:30.661Z,95757.94
2023-01-12T19:53:33.426Z,95733.94
2023-01-12T19:55:36.359Z,95752.44
2023-01-12T19:57:39.804Z,95737.03
2023-01-12T19:59:44.793Z,95747.44
2023-01-12T20:01:47.877Z,95761.63
2023-01-12T20:03:51.444Z,95749.41
2023-01-12T20:05:55.562Z,95751.00
2023-01-12T20:07:58.374Z,95742.63
2023-01-12T20:10:01.127Z,95692.22
2023-01-12T20:12:04.455Z,95753.34
2023-01-12T20:14:07.264Z,95750.28
2023-01-12T20:16:11.220Z,95728.38
2023-01-12T20:18:13.992Z,95749.09
2023-01-12T20:20:18.395Z,95752.47
2023-01-12T20:22:22.515Z,95712.31
2023-01-12T20:24:25.670Z,95729.06
2023-01-12T20:26:28.561Z,95731.94
2023-01-12T20:28:31.259Z,95750.94
2023-01-12T20:30:38.435Z,95741.38
2023-01-12T20:32:42.677Z,95692.50
2023-01-12T20:34:45.444Z,95746.28
2023-01-12T20:36:49.089Z,95745.84
2023-01-12T20:38:53.540Z,95724.09
2023-01-12T20:40:56.380Z,95740.44
2023-01-12T20:42:59.334Z,95721.13
2023-01-12T20:45:03.104Z,95726.56
2023-01-12T20:47:06.047Z,95737.84
2023-01-12T20:49:08.959Z,95721.31
2023-01-12T20:51:14.195Z,95697.06
2023-01-12T20:53:17.984Z,95659.25
2023-01-12T20:55:22.551Z,95710.84
2023-01-12T20:57:25.480Z,95628.59
2023-01-12T20:59:28.263Z,95730.41
2023-01-12T21:01:31.120Z,95726.09
2023-01-12T21:03:33.985Z,95725.53
2023-01-12T21:05:36.878Z,95667.75
2023-01-12T21:07:39.615Z,95708.06
2023-01-12T21:09:42.785Z,95695.53
2023-01-12T21:11:49.687Z,95708.59
2023-01-12T21:13:52.567Z,95705.19
2023-01-12T21:15:59.434Z,95677.56
2023-01-12T21:18:02.197Z,95694.06
2023-01-12T21:20:05.574Z,95699.16
2023-01-12T21:22:08.358Z,95678.72
2023-01-12T21:24:11.149Z,95710.38
2023-01-12T21:26:13.904Z,95686.19
2023-01-12T21:28:18.388Z,95668.50
2023-01-12T21:30:21.245Z,95695.06
2023-01-12T21:32:26.976Z,95729.84
2023-01-12T21:34:29.754Z,95687.19
2023-01-12T21:36:32.788Z,95664.63
2023-01-12T21:38:35.517Z,95690.63
2023-01-12T21:40:39.199Z,95691.75
2023-01-12T21:42:59.599Z,95695.97
2023-01-12T21:45:03.777Z,95698.09
2023-01-12T21:47:06.610Z,95702.28
2023-01-12T21:49:09.424Z,95691.00
2023-01-12T21:51:14.523Z,95676.44
2023-01-12T21:53:18.899Z,95682.63
2023-01-12T21:55:21.698Z,95682.47
2023-01-12T21:57:24.451Z,95690.47
2023-01-12T21:59:27.218Z,95666.78
2023-01-12T22:01:31.466Z,95650.78
2023-01-12T22:03:34.381Z,95686.25
2023-01-12T22:05:37.144Z,95681.63
2023-01-12T22:07:39.923Z,95691.59
2023-01-12T22:09:42.676Z,95662.53
2023-01-12T22:11:45.653Z,95663.97
2023-01-12T22:13:48.615Z,95682.34
2023-01-12T22:15:52.184Z,95658.00
2023-01-12T22:17:56.883Z,95684.59
2023-01-12T22:19:59.624Z,95679.75
2023-01-12T22:22:02.358Z,95678.19
2023-01-12T22:24:05.446Z,95676.00
2023-01-12T22:26:09.895Z,95689.00
2023-01-12T22:28:12.617Z,95681.28
2023-01-12T22:30:17.917Z,95677.38
2023-01-12T22:32:20.667Z,95620.50
2023-01-12T22:34:24.958Z,95670.22
2023-01-12T22:36:27.717Z,95668.13
2023-01-12T22:38:30.452Z,95666.00
2023-01-12T22:40:33.170Z,95670.81
2023-01-12T22:42:53.283Z,95648.09
2023-01-12T22:44:56.406Z,95672.53
2023-01-12T22:46:59.217Z,95659.22
2023-01-12T22:49:01.985Z,95669.53
2023-01-12T22:51:06.505Z,95666.59
2023-01-12T22:53:09.226Z,95678.13
2023-01-12T22:55:11.942Z,95662.69
2023-01-12T22:57:14.667Z,95668.03
2023-01-12T22:59:17.561Z,95678.78
2023-01-12T23:01:21.472Z,95674.16
2023-01-12T23:03:24.187Z,95681.44
2023-01-12T23:05:27.018Z,95679.56
2023-01-12T23:07:31.615Z,95693.38
2023-01-12T23:09:34.272Z,95672.50
2023-01-12T23:11:37.015Z,95671.44
2023-01-12T23:13:40.804Z,95675.84
2023-01-12T23:15:45.922Z,95676.78
2023-01-12T23:17:48.643Z,95648.22
2023-01-12T23:19:51.320Z,95635.13
2023-01-12T23:21:54.348Z,95653.47
2023-01-12T23:23:59.950Z,95656.69
2023-01-12T23:26:03.755Z,95559.59
2023-01-12T23:28:07.492Z,95631.84
2023-01-12T23:30:11.679Z,95628.59
2023-01-12T23:32:14.323Z,95637.53
2023-01-12T23:34:16.976Z,95622.69
2023-01-12T23:36:21.648Z,95626.88
2023-01-12T23:38:24.334Z,95619.66
2023-01-12T23:40:28.353Z,95629.00
2023-01-12T23:42:31.758Z,95630.63
2023-01-12T23:44:34.376Z,95593.53
2023-01-12T23:46:39.325Z,95623.69
2023-01-12T23:48:42.256Z,95618.66
2023-01-12T23:50:45.004Z,95615.09
2023-01-12T23:52:49.845Z,95620.03
2023-01-12T23:54:55.581Z,95605.09
2023-01-12T23:56:59.571Z,95626.59
2023-01-12T23:59:02.270Z,95591.06
